sensor_id;sensor_type;location;lat;lon;timestamp;P1;durP1;ratioP1;P2;durP2;ratioP2
79204;SDS011;68632;47.512;19.104;2023-11-21T00:00:08;17.23;;;10.70;;
79204;SDS011;68632;47.512;19.104;2023-11-21T00:01:14;14.93;;;9.05;;
79204;SDS011;68632;47.512;19.104;2023-11-21T00:02:17;14.80;;;10.48;;
79204;SDS011;68632;47.512;19.104;2023-11-21T00:03:19;17.95;;;11.50;;
79204;SDS011;68632;47.512;19.104;2023-11-21T00:04:21;14.43;;;10.38;;
79204;SDS011;68632;47.512;19.104;2023-11-21T00:05:24;12.80;;;9.82;;
79204;SDS011;68632;47.512;19.104;2023-11-21T00:06:26;15.07;;;10.30;;
79204;SDS011;68632;47.512;19.104;2023-11-21T00:07:28;16.30;;;9.88;;
79204;SDS011;68632;47.512;19.104;2023-11-21T00:08:30;18.42;;;11.07;;
79204;SDS011;68632;47.512;19.104;2023-11-21T00:09:32;16.38;;;10.80;;
79204;SDS011;68632;47.512;19.104;2023-11-21T00:10:34;15.32;;;9.80;;
79204;SDS011;68632;47.512;19.104;2023-11-21T00:11:37;14.32;;;10.35;;
79204;SDS011;68632;47.512;19.104;2023-11-21T00:12:39;16.15;;;9.45;;
79204;SDS011;68632;47.512;19.104;2023-11-21T00:13:44;16.15;;;9.88;;
79204;SDS011;68632;47.512;19.104;2023-11-21T00:14:51;15.85;;;10.32;;
79204;SDS011;68632;47.512;19.104;2023-11-21T00:15:57;14.07;;;9.68;;
79204;SDS011;68632;47.512;19.104;2023-11-21T00:16:59;14.32;;;9.85;;
79204;SDS011;68632;47.512;19.104;2023-11-21T00:18:01;18.58;;;10.57;;
79204;SDS011;68632;47.512;19.104;2023-11-21T00:19:03;16.25;;;10.10;;
79204;SDS011;68632;47.512;19.104;2023-11-21T00:20:06;13.93;;;10.05;;
79204;SDS011;68632;47.512;19.104;2023-11-21T00:21:09;17.42;;;10.23;;
79204;SDS011;68632;47.512;19.104;2023-11-21T00:22:14;15.23;;;9.77;;
79204;SDS011;68632;47.512;19.104;2023-11-21T00:23:17;14.40;;;9.68;;
79204;SDS011;68632;47.512;19.104;2023-11-21T00:24:20;12.13;;;9.65;;
79204;SDS011;68632;47.512;19.104;2023-11-21T00:25:22;15.35;;;10.63;;
79204;SDS011;68632;47.512;19.104;2023-11-21T00:26:24;15.75;;;9.88;;
79204;SDS011;68632;47.512;19.104;2023-11-21T00:27:26;15.85;;;10.10;;
79204;SDS011;68632;47.512;19.104;2023-11-21T00:28:28;14.77;;;10.25;;
79204;SDS011;68632;47.512;19.104;2023-11-21T00:29:31;13.55;;;10.05;;
79204;SDS011;68632;47.512;19.104;2023-11-21T00:30:34;18.00;;;10.18;;
79204;SDS011;68632;47.512;19.104;2023-11-21T00:31:36;13.48;;;10.38;;
79204;SDS011;68632;47.512;19.104;2023-11-21T00:32:39;15.15;;;11.27;;
79204;SDS011;68632;47.512;19.104;2023-11-21T00:33:42;14.23;;;9.93;;
79204;SDS011;68632;47.512;19.104;2023-11-21T00:34:45;19.10;;;11.20;;
79204;SDS011;68632;47.512;19.104;2023-11-21T00:35:47;14.85;;;10.82;;
79204;SDS011;68632;47.512;19.104;2023-11-21T00:36:49;17.00;;;10.60;;
79204;SDS011;68632;47.512;19.104;2023-11-21T00:37:51;15.05;;;10.23;;
79204;SDS011;68632;47.512;19.104;2023-11-21T00:38:54;15.18;;;11.13;;
79204;SDS011;68632;47.512;19.104;2023-11-21T00:39:57;14.70;;;10.63;;
79204;SDS011;68632;47.512;19.104;2023-11-21T00:41:00;14.27;;;11.00;;
79204;SDS011;68632;47.512;19.104;2023-11-21T00:42:02;18.95;;;11.13;;
79204;SDS011;68632;47.512;19.104;2023-11-21T00:43:06;13.63;;;9.73;;
79204;SDS011;68632;47.512;19.104;2023-11-21T00:44:08;15.40;;;10.63;;
79204;SDS011;68632;47.512;19.104;2023-11-21T00:45:11;16.40;;;11.10;;
79204;SDS011;68632;47.512;19.104;2023-11-21T00:46:13;13.65;;;10.70;;
79204;SDS011;68632;47.512;19.104;2023-11-21T00:47:15;16.17;;;10.32;;
79204;SDS011;68632;47.512;19.104;2023-11-21T00:48:18;15.93;;;12.05;;
79204;SDS011;68632;47.512;19.104;2023-11-21T00:49:20;19.35;;;11.68;;
79204;SDS011;68632;47.512;19.104;2023-11-21T00:50:23;16.75;;;11.90;;
79204;SDS011;68632;47.512;19.104;2023-11-21T00:51:25;16.08;;;10.70;;
79204;SDS011;68632;47.512;19.104;2023-11-21T00:52:27;15.27;;;11.60;;
79204;SDS011;68632;47.512;19.104;2023-11-21T00:53:29;19.52;;;11.07;;
79204;SDS011;68632;47.512;19.104;2023-11-21T00:54:31;19.05;;;10.73;;
79204;SDS011;68632;47.512;19.104;2023-11-21T00:55:36;18.75;;;12.10;;
79204;SDS011;68632;47.512;19.104;2023-11-21T00:56:39;18.55;;;11.52;;
79204;SDS011;68632;47.512;19.104;2023-11-21T00:57:42;18.13;;;11.40;;
79204;SDS011;68632;47.512;19.104;2023-11-21T00:58:44;19.13;;;11.82;;
79204;SDS011;68632;47.512;19.104;2023-11-21T00:59:51;18.40;;;12.77;;
79204;SDS011;68632;47.512;19.104;2023-11-21T01:00:54;19.95;;;13.02;;
79204;SDS011;68632;47.512;19.104;2023-11-21T01:01:57;17.40;;;12.10;;
79204;SDS011;68632;47.512;19.104;2023-11-21T01:04:04;17.73;;;10.57;;
79204;SDS011;68632;47.512;19.104;2023-11-21T01:05:08;18.08;;;10.77;;
79204;SDS011;68632;47.512;19.104;2023-11-21T01:06:10;17.30;;;10.85;;
79204;SDS011;68632;47.512;19.104;2023-11-21T01:07:16;16.90;;;10.43;;
79204;SDS011;68632;47.512;19.104;2023-11-21T01:08:18;17.25;;;11.73;;
79204;SDS011;68632;47.512;19.104;2023-11-21T01:09:20;16.60;;;10.50;;
79204;SDS011;68632;47.512;19.104;2023-11-21T01:10:22;14.13;;;10.20;;
79204;SDS011;68632;47.512;19.104;2023-11-21T01:11:24;15.68;;;10.15;;
79204;SDS011;68632;47.512;19.104;2023-11-21T01:12:28;15.02;;;10.00;;
79204;SDS011;68632;47.512;19.104;2023-11-21T01:13:30;14.57;;;10.82;;
79204;SDS011;68632;47.512;19.104;2023-11-21T01:14:32;16.02;;;11.15;;
79204;SDS011;68632;47.512;19.104;2023-11-21T01:15:34;17.42;;;10.73;;
79204;SDS011;68632;47.512;19.104;2023-11-21T01:16:37;16.65;;;10.15;;
79204;SDS011;68632;47.512;19.104;2023-11-21T01:17:39;15.50;;;10.70;;
79204;SDS011;68632;47.512;19.104;2023-11-21T01:18:43;18.08;;;11.90;;
79204;SDS011;68632;47.512;19.104;2023-11-21T01:19:45;15.38;;;10.88;;
79204;SDS011;68632;47.512;19.104;2023-11-21T01:20:47;17.42;;;10.65;;
79204;SDS011;68632;47.512;19.104;2023-11-21T01:21:49;12.90;;;9.48;;
79204;SDS011;68632;47.512;19.104;2023-11-21T01:22:52;15.23;;;10.43;;
79204;SDS011;68632;47.512;19.104;2023-11-21T01:23:55;19.30;;;9.43;;
79204;SDS011;68632;47.512;19.104;2023-11-21T01:24:57;15.45;;;10.88;;
79204;SDS011;68632;47.512;19.104;2023-11-21T01:25:59;14.93;;;10.38;;
79204;SDS011;68632;47.512;19.104;2023-11-21T01:27:02;15.15;;;10.57;;
79204;SDS011;68632;47.512;19.104;2023-11-21T01:28:04;14.90;;;9.55;;
79204;SDS011;68632;47.512;19.104;2023-11-21T01:29:06;15.23;;;10.07;;
79204;SDS011;68632;47.512;19.104;2023-11-21T01:30:08;17.98;;;10.50;;
79204;SDS011;68632;47.512;19.104;2023-11-21T01:31:17;16.25;;;10.82;;
79204;SDS011;68632;47.512;19.104;2023-11-21T01:32:19;15.02;;;10.77;;
79204;SDS011;68632;47.512;19.104;2023-11-21T01:33:22;15.20;;;10.80;;
79204;SDS011;68632;47.512;19.104;2023-11-21T01:34:26;16.27;;;10.45;;
79204;SDS011;68632;47.512;19.104;2023-11-21T01:35:29;15.65;;;9.88;;
79204;SDS011;68632;47.512;19.104;2023-11-21T01:36:32;14.15;;;9.82;;
79204;SDS011;68632;47.512;19.104;2023-11-21T01:37:34;16.33;;;10.70;;
79204;SDS011;68632;47.512;19.104;2023-11-21T01:38:36;17.65;;;11.75;;
79204;SDS011;68632;47.512;19.104;2023-11-21T01:39:39;17.52;;;11.82;;
79204;SDS011;68632;47.512;19.104;2023-11-21T01:40:41;15.48;;;10.77;;
79204;SDS011;68632;47.512;19.104;2023-11-21T01:41:44;17.88;;;10.88;;
79204;SDS011;68632;47.512;19.104;2023-11-21T01:42:46;15.88;;;10.63;;
79204;SDS011;68632;47.512;19.104;2023-11-21T01:43:50;15.52;;;9.90;;
79204;SDS011;68632;47.512;19.104;2023-11-21T01:44:53;14.43;;;10.95;;
79204;SDS011;68632;47.512;19.104;2023-11-21T01:45:57;17.35;;;11.13;;
79204;SDS011;68632;47.512;19.104;2023-11-21T01:46:59;17.85;;;11.35;;
79204;SDS011;68632;47.512;19.104;2023-11-21T01:48:01;16.60;;;10.88;;
79204;SDS011;68632;47.512;19.104;2023-11-21T01:49:05;15.93;;;11.00;;
79204;SDS011;68632;47.512;19.104;2023-11-21T01:50:07;15.30;;;11.05;;
79204;SDS011;68632;47.512;19.104;2023-11-21T01:51:10;16.15;;;11.10;;
79204;SDS011;68632;47.512;19.104;2023-11-21T01:52:12;16.63;;;11.18;;
79204;SDS011;68632;47.512;19.104;2023-11-21T01:53:15;14.57;;;11.13;;
79204;SDS011;68632;47.512;19.104;2023-11-21T01:54:17;16.77;;;9.95;;
79204;SDS011;68632;47.512;19.104;2023-11-21T01:55:20;15.32;;;10.43;;
79204;SDS011;68632;47.512;19.104;2023-11-21T01:56:29;14.68;;;10.65;;
79204;SDS011;68632;47.512;19.104;2023-11-21T01:57:32;16.13;;;10.90;;
79204;SDS011;68632;47.512;19.104;2023-11-21T01:58:35;15.32;;;10.82;;
79204;SDS011;68632;47.512;19.104;2023-11-21T01:59:37;13.65;;;10.73;;
79204;SDS011;68632;47.512;19.104;2023-11-21T02:00:40;15.80;;;10.95;;
79204;SDS011;68632;47.512;19.104;2023-11-21T02:01:42;15.13;;;10.57;;
79204;SDS011;68632;47.512;19.104;2023-11-21T02:02:45;16.85;;;11.00;;
79204;SDS011;68632;47.512;19.104;2023-11-21T02:03:48;14.52;;;10.50;;
79204;SDS011;68632;47.512;19.104;2023-11-21T02:04:51;17.30;;;11.60;;
79204;SDS011;68632;47.512;19.104;2023-11-21T02:05:53;15.00;;;9.60;;
79204;SDS011;68632;47.512;19.104;2023-11-21T02:06:55;17.73;;;11.80;;
79204;SDS011;68632;47.512;19.104;2023-11-21T02:07:58;17.08;;;11.27;;
79204;SDS011;68632;47.512;19.104;2023-11-21T02:09:00;14.93;;;11.05;;
79204;SDS011;68632;47.512;19.104;2023-11-21T02:10:02;15.40;;;11.18;;
79204;SDS011;68632;47.512;19.104;2023-11-21T02:11:06;21.17;;;10.75;;
79204;SDS011;68632;47.512;19.104;2023-11-21T02:12:08;18.10;;;12.00;;
79204;SDS011;68632;47.512;19.104;2023-11-21T02:13:12;17.58;;;10.25;;
79204;SDS011;68632;47.512;19.104;2023-11-21T02:14:14;14.65;;;10.88;;
79204;SDS011;68632;47.512;19.104;2023-11-21T02:15:17;14.30;;;8.93;;
79204;SDS011;68632;47.512;19.104;2023-11-21T02:16:22;15.13;;;11.05;;
79204;SDS011;68632;47.512;19.104;2023-11-21T02:17:25;13.50;;;9.70;;
79204;SDS011;68632;47.512;19.104;2023-11-21T02:18:29;14.52;;;8.60;;
79204;SDS011;68632;47.512;19.104;2023-11-21T02:19:31;15.13;;;10.65;;
79204;SDS011;68632;47.512;19.104;2023-11-21T02:20:34;14.55;;;10.25;;
79204;SDS011;68632;47.512;19.104;2023-11-21T02:21:38;16.52;;;10.95;;
79204;SDS011;68632;47.512;19.104;2023-11-21T02:22:42;17.25;;;11.23;;
79204;SDS011;68632;47.512;19.104;2023-11-21T02:24:07;16.50;;;9.68;;
79204;SDS011;68632;47.512;19.104;2023-11-21T02:25:09;14.82;;;9.93;;
79204;SDS011;68632;47.512;19.104;2023-11-21T02:26:12;18.63;;;10.93;;
79204;SDS011;68632;47.512;19.104;2023-11-21T02:27:15;15.82;;;10.88;;
79204;SDS011;68632;47.512;19.104;2023-11-21T02:28:22;17.02;;;10.43;;
79204;SDS011;68632;47.512;19.104;2023-11-21T02:29:30;15.77;;;10.45;;
79204;SDS011;68632;47.512;19.104;2023-11-21T02:30:33;17.73;;;11.27;;
79204;SDS011;68632;47.512;19.104;2023-11-21T02:31:35;14.98;;;11.32;;
79204;SDS011;68632;47.512;19.104;2023-11-21T02:32:39;14.20;;;11.52;;
79204;SDS011;68632;47.512;19.104;2023-11-21T02:33:50;16.10;;;10.25;;
79204;SDS011;68632;47.512;19.104;2023-11-21T02:34:52;11.57;;;9.43;;
79204;SDS011;68632;47.512;19.104;2023-11-21T02:35:57;16.52;;;10.85;;
79204;SDS011;68632;47.512;19.104;2023-11-21T02:37:00;16.58;;;11.95;;
79204;SDS011;68632;47.512;19.104;2023-11-21T02:38:03;16.80;;;12.27;;
79204;SDS011;68632;47.512;19.104;2023-11-21T02:39:05;13.95;;;10.57;;
79204;SDS011;68632;47.512;19.104;2023-11-21T02:40:09;16.23;;;11.38;;
79204;SDS011;68632;47.512;19.104;2023-11-21T02:41:14;20.48;;;10.45;;
79204;SDS011;68632;47.512;19.104;2023-11-21T02:42:16;15.95;;;10.77;;
79204;SDS011;68632;47.512;19.104;2023-11-21T02:43:18;12.43;;;10.10;;
79204;SDS011;68632;47.512;19.104;2023-11-21T02:44:21;15.38;;;10.85;;
79204;SDS011;68632;47.512;19.104;2023-11-21T02:45:23;17.42;;;10.90;;
79204;SDS011;68632;47.512;19.104;2023-11-21T02:46:26;13.45;;;11.02;;
79204;SDS011;68632;47.512;19.104;2023-11-21T02:47:28;17.17;;;11.65;;
79204;SDS011;68632;47.512;19.104;2023-11-21T02:48:31;13.48;;;10.60;;
79204;SDS011;68632;47.512;19.104;2023-11-21T02:49:33;16.75;;;11.32;;
79204;SDS011;68632;47.512;19.104;2023-11-21T02:50:36;15.27;;;11.13;;
79204;SDS011;68632;47.512;19.104;2023-11-21T02:51:39;18.08;;;10.65;;
79204;SDS011;68632;47.512;19.104;2023-11-21T02:52:41;15.52;;;11.32;;
79204;SDS011;68632;47.512;19.104;2023-11-21T02:53:43;17.33;;;11.63;;
79204;SDS011;68632;47.512;19.104;2023-11-21T02:54:46;18.00;;;11.70;;
79204;SDS011;68632;47.512;19.104;2023-11-21T02:55:48;16.65;;;10.98;;
79204;SDS011;68632;47.512;19.104;2023-11-21T02:56:50;17.77;;;10.98;;
79204;SDS011;68632;47.512;19.104;2023-11-21T02:57:52;17.35;;;10.98;;
79204;SDS011;68632;47.512;19.104;2023-11-21T02:58:55;17.42;;;12.10;;
79204;SDS011;68632;47.512;19.104;2023-11-21T02:59:57;18.35;;;10.90;;
79204;SDS011;68632;47.512;19.104;2023-11-21T03:00:59;17.25;;;12.00;;
79204;SDS011;68632;47.512;19.104;2023-11-21T03:02:02;15.73;;;10.35;;
79204;SDS011;68632;47.512;19.104;2023-11-21T03:03:05;17.42;;;11.23;;
79204;SDS011;68632;47.512;19.104;2023-11-21T03:04:07;19.58;;;11.45;;
79204;SDS011;68632;47.512;19.104;2023-11-21T03:05:09;15.15;;;11.02;;
79204;SDS011;68632;47.512;19.104;2023-11-21T03:06:12;16.38;;;11.60;;
79204;SDS011;68632;47.512;19.104;2023-11-21T03:07:14;16.42;;;12.13;;
79204;SDS011;68632;47.512;19.104;2023-11-21T03:08:16;19.95;;;12.65;;
79204;SDS011;68632;47.512;19.104;2023-11-21T03:09:19;14.88;;;10.80;;
79204;SDS011;68632;47.512;19.104;2023-11-21T03:10:21;15.38;;;11.23;;
79204;SDS011;68632;47.512;19.104;2023-11-21T03:11:23;18.13;;;12.45;;
79204;SDS011;68632;47.512;19.104;2023-11-21T03:12:26;19.95;;;13.07;;
79204;SDS011;68632;47.512;19.104;2023-11-21T03:13:28;17.00;;;11.52;;
79204;SDS011;68632;47.512;19.104;2023-11-21T03:14:30;15.27;;;11.40;;
79204;SDS011;68632;47.512;19.104;2023-11-21T03:15:33;19.88;;;11.70;;
79204;SDS011;68632;47.512;19.104;2023-11-21T03:16:37;19.02;;;12.63;;
79204;SDS011;68632;47.512;19.104;2023-11-21T03:17:40;20.77;;;13.65;;
79204;SDS011;68632;47.512;19.104;2023-11-21T03:18:42;17.58;;;13.35;;
79204;SDS011;68632;47.512;19.104;2023-11-21T03:19:45;21.05;;;13.10;;
79204;SDS011;68632;47.512;19.104;2023-11-21T03:20:47;18.17;;;11.40;;
79204;SDS011;68632;47.512;19.104;2023-11-21T03:21:49;21.10;;;12.65;;
79204;SDS011;68632;47.512;19.104;2023-11-21T03:22:51;20.15;;;12.32;;
79204;SDS011;68632;47.512;19.104;2023-11-21T03:23:53;21.73;;;13.05;;
79204;SDS011;68632;47.512;19.104;2023-11-21T03:24:56;15.60;;;12.10;;
79204;SDS011;68632;47.512;19.104;2023-11-21T03:25:58;18.73;;;13.93;;
79204;SDS011;68632;47.512;19.104;2023-11-21T03:27:01;22.77;;;13.38;;
79204;SDS011;68632;47.512;19.104;2023-11-21T03:28:03;19.77;;;12.57;;
79204;SDS011;68632;47.512;19.104;2023-11-21T03:29:06;22.17;;;14.13;;
79204;SDS011;68632;47.512;19.104;2023-11-21T03:30:08;17.77;;;13.25;;
79204;SDS011;68632;47.512;19.104;2023-11-21T03:31:11;21.45;;;13.32;;
79204;SDS011;68632;47.512;19.104;2023-11-21T03:32:13;21.48;;;14.73;;
79204;SDS011;68632;47.512;19.104;2023-11-21T03:33:15;19.25;;;15.50;;
79204;SDS011;68632;47.512;19.104;2023-11-21T03:34:27;19.27;;;13.80;;
79204;SDS011;68632;47.512;19.104;2023-11-21T03:35:30;21.17;;;14.48;;
79204;SDS011;68632;47.512;19.104;2023-11-21T03:36:32;24.60;;;16.15;;
79204;SDS011;68632;47.512;19.104;2023-11-21T03:37:34;24.80;;;15.70;;
79204;SDS011;68632;47.512;19.104;2023-11-21T03:38:37;26.92;;;17.55;;
79204;SDS011;68632;47.512;19.104;2023-11-21T03:39:39;25.60;;;16.42;;
79204;SDS011;68632;47.512;19.104;2023-11-21T03:40:41;26.00;;;16.85;;
79204;SDS011;68632;47.512;19.104;2023-11-21T03:41:44;24.92;;;17.40;;
79204;SDS011;68632;47.512;19.104;2023-11-21T03:42:46;24.23;;;18.23;;
79204;SDS011;68632;47.512;19.104;2023-11-21T03:43:49;21.15;;;15.45;;
79204;SDS011;68632;47.512;19.104;2023-11-21T03:44:51;24.45;;;15.70;;
79204;SDS011;68632;47.512;19.104;2023-11-21T03:45:53;23.52;;;16.75;;
79204;SDS011;68632;47.512;19.104;2023-11-21T03:46:55;23.23;;;16.40;;
79204;SDS011;68632;47.512;19.104;2023-11-21T03:47:57;23.60;;;17.42;;
79204;SDS011;68632;47.512;19.104;2023-11-21T03:49:00;24.20;;;17.42;;
79204;SDS011;68632;47.512;19.104;2023-11-21T03:50:02;27.90;;;18.23;;
79204;SDS011;68632;47.512;19.104;2023-11-21T03:51:05;27.52;;;19.25;;
79204;SDS011;68632;47.512;19.104;2023-11-21T03:52:07;25.33;;;18.65;;
79204;SDS011;68632;47.512;19.104;2023-11-21T03:53:11;26.30;;;18.63;;
79204;SDS011;68632;47.512;19.104;2023-11-21T03:54:13;25.65;;;18.05;;
79204;SDS011;68632;47.512;19.104;2023-11-21T03:55:16;25.48;;;19.52;;
79204;SDS011;68632;47.512;19.104;2023-11-21T03:56:19;27.27;;;19.05;;
79204;SDS011;68632;47.512;19.104;2023-11-21T03:57:23;31.08;;;19.73;;
79204;SDS011;68632;47.512;19.104;2023-11-21T03:58:25;28.30;;;18.83;;
79204;SDS011;68632;47.512;19.104;2023-11-21T03:59:27;31.23;;;20.63;;
79204;SDS011;68632;47.512;19.104;2023-11-21T04:00:30;27.58;;;19.98;;
79204;SDS011;68632;47.512;19.104;2023-11-21T04:01:32;29.67;;;21.00;;
79204;SDS011;68632;47.512;19.104;2023-11-21T04:02:34;33.97;;;22.33;;
79204;SDS011;68632;47.512;19.104;2023-11-21T04:03:37;30.83;;;20.25;;
79204;SDS011;68632;47.512;19.104;2023-11-21T04:04:40;27.98;;;20.15;;
79204;SDS011;68632;47.512;19.104;2023-11-21T04:05:43;31.20;;;19.92;;
79204;SDS011;68632;47.512;19.104;2023-11-21T04:06:47;29.35;;;20.67;;
79204;SDS011;68632;47.512;19.104;2023-11-21T04:07:50;29.67;;;19.75;;
79204;SDS011;68632;47.512;19.104;2023-11-21T04:08:53;29.90;;;21.65;;
79204;SDS011;68632;47.512;19.104;2023-11-21T04:09:55;30.65;;;21.25;;
79204;SDS011;68632;47.512;19.104;2023-11-21T04:11:00;32.63;;;21.75;;
79204;SDS011;68632;47.512;19.104;2023-11-21T04:12:03;33.28;;;20.90;;
79204;SDS011;68632;47.512;19.104;2023-11-21T04:13:05;27.55;;;20.73;;
79204;SDS011;68632;47.512;19.104;2023-11-21T04:14:08;30.45;;;21.25;;
79204;SDS011;68632;47.512;19.104;2023-11-21T04:15:11;33.90;;;20.90;;
79204;SDS011;68632;47.512;19.104;2023-11-21T04:16:15;31.75;;;22.17;;
79204;SDS011;68632;47.512;19.104;2023-11-21T04:17:20;28.55;;;21.02;;
79204;SDS011;68632;47.512;19.104;2023-11-21T04:18:22;28.17;;;21.50;;
79204;SDS011;68632;47.512;19.104;2023-11-21T04:19:24;35.13;;;23.00;;
79204;SDS011;68632;47.512;19.104;2023-11-21T04:20:27;31.23;;;20.52;;
79204;SDS011;68632;47.512;19.104;2023-11-21T04:21:29;29.20;;;19.92;;
79204;SDS011;68632;47.512;19.104;2023-11-21T04:22:31;34.35;;;22.95;;
79204;SDS011;68632;47.512;19.104;2023-11-21T04:23:35;32.80;;;22.30;;
79204;SDS011;68632;47.512;19.104;2023-11-21T04:24:37;35.03;;;23.27;;
79204;SDS011;68632;47.512;19.104;2023-11-21T04:25:39;34.35;;;23.17;;
79204;SDS011;68632;47.512;19.104;2023-11-21T04:26:41;39.20;;;23.75;;
79204;SDS011;68632;47.512;19.104;2023-11-21T04:27:45;32.88;;;24.23;;
79204;SDS011;68632;47.512;19.104;2023-11-21T04:28:47;30.98;;;22.02;;
79204;SDS011;68632;47.512;19.104;2023-11-21T04:29:50;33.42;;;20.17;;
79204;SDS011;68632;47.512;19.104;2023-11-21T04:30:52;31.90;;;22.42;;
79204;SDS011;68632;47.512;19.104;2023-11-21T04:31:54;34.15;;;21.75;;
79204;SDS011;68632;47.512;19.104;2023-11-21T04:32:56;33.50;;;22.67;;
79204;SDS011;68632;47.512;19.104;2023-11-21T04:33:58;33.35;;;22.13;;
79204;SDS011;68632;47.512;19.104;2023-11-21T04:35:01;31.08;;;21.65;;
79204;SDS011;68632;47.512;19.104;2023-11-21T04:36:03;33.88;;;22.02;;
79204;SDS011;68632;47.512;19.104;2023-11-21T04:37:06;35.10;;;20.48;;
79204;SDS011;68632;47.512;19.104;2023-11-21T04:38:08;30.65;;;20.85;;
79204;SDS011;68632;47.512;19.104;2023-11-21T04:39:10;32.97;;;21.10;;
79204;SDS011;68632;47.512;19.104;2023-11-21T04:40:13;31.27;;;20.80;;
79204;SDS011;68632;47.512;19.104;2023-11-21T04:41:15;32.42;;;21.33;;
79204;SDS011;68632;47.512;19.104;2023-11-21T04:42:17;28.50;;;20.35;;
79204;SDS011;68632;47.512;19.104;2023-11-21T04:43:20;29.73;;;21.48;;
79204;SDS011;68632;47.512;19.104;2023-11-21T04:44:22;32.63;;;20.58;;
79204;SDS011;68632;47.512;19.104;2023-11-21T04:45:24;28.23;;;21.05;;
79204;SDS011;68632;47.512;19.104;2023-11-21T04:46:26;26.30;;;19.80;;
79204;SDS011;68632;47.512;19.104;2023-11-21T04:47:28;32.00;;;20.50;;
79204;SDS011;68632;47.512;19.104;2023-11-21T04:48:31;34.38;;;19.90;;
79204;SDS011;68632;47.512;19.104;2023-11-21T04:49:33;33.30;;;21.17;;
79204;SDS011;68632;47.512;19.104;2023-11-21T04:50:35;30.75;;;21.52;;
79204;SDS011;68632;47.512;19.104;2023-11-21T04:51:37;32.35;;;21.00;;
79204;SDS011;68632;47.512;19.104;2023-11-21T04:52:40;29.52;;;21.00;;
79204;SDS011;68632;47.512;19.104;2023-11-21T04:53:42;27.60;;;20.08;;
79204;SDS011;68632;47.512;19.104;2023-11-21T04:54:44;30.63;;;20.80;;
79204;SDS011;68632;47.512;19.104;2023-11-21T04:55:46;32.58;;;20.63;;
79204;SDS011;68632;47.512;19.104;2023-11-21T04:56:50;33.25;;;22.48;;
79204;SDS011;68632;47.512;19.104;2023-11-21T04:57:52;34.85;;;20.95;;
79204;SDS011;68632;47.512;19.104;2023-11-21T04:58:54;27.73;;;20.13;;
79204;SDS011;68632;47.512;19.104;2023-11-21T04:59:57;27.70;;;19.60;;
79204;SDS011;68632;47.512;19.104;2023-11-21T05:00:59;30.45;;;20.23;;
79204;SDS011;68632;47.512;19.104;2023-11-21T05:02:02;27.50;;;19.67;;
79204;SDS011;68632;47.512;19.104;2023-11-21T05:03:06;28.70;;;17.27;;
79204;SDS011;68632;47.512;19.104;2023-11-21T05:04:09;27.63;;;19.10;;
79204;SDS011;68632;47.512;19.104;2023-11-21T05:05:11;30.98;;;20.65;;
79204;SDS011;68632;47.512;19.104;2023-11-21T05:06:14;27.90;;;19.58;;
79204;SDS011;68632;47.512;19.104;2023-11-21T05:07:16;29.50;;;18.48;;
79204;SDS011;68632;47.512;19.104;2023-11-21T05:08:18;32.20;;;19.80;;
79204;SDS011;68632;47.512;19.104;2023-11-21T05:09:22;26.08;;;17.70;;
79204;SDS011;68632;47.512;19.104;2023-11-21T05:10:24;29.00;;;18.52;;
79204;SDS011;68632;47.512;19.104;2023-11-21T05:11:26;23.23;;;16.67;;
79204;SDS011;68632;47.512;19.104;2023-11-21T05:12:30;26.58;;;18.23;;
79204;SDS011;68632;47.512;19.104;2023-11-21T05:13:36;28.92;;;18.25;;
79204;SDS011;68632;47.512;19.104;2023-11-21T05:14:39;22.02;;;16.95;;
79204;SDS011;68632;47.512;19.104;2023-11-21T05:15:41;26.65;;;17.52;;
79204;SDS011;68632;47.512;19.104;2023-11-21T05:16:43;24.15;;;18.40;;
79204;SDS011;68632;47.512;19.104;2023-11-21T05:17:46;29.67;;;19.20;;
79204;SDS011;68632;47.512;19.104;2023-11-21T05:18:49;30.05;;;17.05;;
79204;SDS011;68632;47.512;19.104;2023-11-21T05:19:52;25.40;;;16.20;;
79204;SDS011;68632;47.512;19.104;2023-11-21T05:20:54;26.83;;;17.75;;
79204;SDS011;68632;47.512;19.104;2023-11-21T05:21:56;23.92;;;14.45;;
79204;SDS011;68632;47.512;19.104;2023-11-21T05:22:59;25.63;;;17.02;;
79204;SDS011;68632;47.512;19.104;2023-11-21T05:24:01;25.23;;;17.58;;
79204;SDS011;68632;47.512;19.104;2023-11-21T05:25:03;23.17;;;16.85;;
79204;SDS011;68632;47.512;19.104;2023-11-21T05:26:06;26.95;;;17.30;;
79204;SDS011;68632;47.512;19.104;2023-11-21T05:27:09;26.27;;;17.85;;
79204;SDS011;68632;47.512;19.104;2023-11-21T05:28:12;29.45;;;19.83;;
79204;SDS011;68632;47.512;19.104;2023-11-21T05:29:14;25.65;;;17.67;;
79204;SDS011;68632;47.512;19.104;2023-11-21T05:30:16;26.65;;;19.65;;
79204;SDS011;68632;47.512;19.104;2023-11-21T05:31:18;25.65;;;17.40;;
79204;SDS011;68632;47.512;19.104;2023-11-21T05:32:21;29.58;;;19.42;;
79204;SDS011;68632;47.512;19.104;2023-11-21T05:33:24;29.02;;;17.88;;
79204;SDS011;68632;47.512;19.104;2023-11-21T05:34:27;23.83;;;17.70;;
79204;SDS011;68632;47.512;19.104;2023-11-21T05:35:29;26.48;;;17.52;;
79204;SDS011;68632;47.512;19.104;2023-11-21T05:36:31;22.90;;;16.10;;
79204;SDS011;68632;47.512;19.104;2023-11-21T05:37:33;27.88;;;17.67;;
79204;SDS011;68632;47.512;19.104;2023-11-21T05:38:36;25.38;;;17.15;;
79204;SDS011;68632;47.512;19.104;2023-11-21T05:39:38;28.58;;;18.40;;
79204;SDS011;68632;47.512;19.104;2023-11-21T05:40:40;26.33;;;16.70;;
79204;SDS011;68632;47.512;19.104;2023-11-21T05:41:43;32.67;;;18.95;;
79204;SDS011;68632;47.512;19.104;2023-11-21T05:42:47;21.52;;;14.45;;
79204;SDS011;68632;47.512;19.104;2023-11-21T05:43:49;24.30;;;16.00;;
79204;SDS011;68632;47.512;19.104;2023-11-21T05:44:52;19.58;;;14.82;;
79204;SDS011;68632;47.512;19.104;2023-11-21T05:45:54;22.00;;;12.60;;
79204;SDS011;68632;47.512;19.104;2023-11-21T05:46:56;22.70;;;14.90;;
79204;SDS011;68632;47.512;19.104;2023-11-21T05:48:00;22.63;;;15.35;;
79204;SDS011;68632;47.512;19.104;2023-11-21T05:49:03;20.13;;;14.27;;
79204;SDS011;68632;47.512;19.104;2023-11-21T05:50:05;21.38;;;14.05;;
79204;SDS011;68632;47.512;19.104;2023-11-21T05:51:08;18.63;;;14.18;;
79204;SDS011;68632;47.512;19.104;2023-11-21T05:52:10;20.30;;;14.90;;
79204;SDS011;68632;47.512;19.104;2023-11-21T05:53:12;19.42;;;15.40;;
79204;SDS011;68632;47.512;19.104;2023-11-21T05:54:17;20.17;;;14.15;;
79204;SDS011;68632;47.512;19.104;2023-11-21T05:55:22;18.25;;;12.93;;
79204;SDS011;68632;47.512;19.104;2023-11-21T05:56:27;20.33;;;11.80;;
79204;SDS011;68632;47.512;19.104;2023-11-21T05:57:30;18.00;;;12.52;;
79204;SDS011;68632;47.512;19.104;2023-11-21T05:58:32;24.60;;;14.38;;
79204;SDS011;68632;47.512;19.104;2023-11-21T05:59:34;16.77;;;10.57;;
79204;SDS011;68632;47.512;19.104;2023-11-21T06:00:36;16.27;;;10.63;;
79204;SDS011;68632;47.512;19.104;2023-11-21T06:01:39;19.02;;;11.57;;
79204;SDS011;68632;47.512;19.104;2023-11-21T06:02:41;19.23;;;11.07;;
79204;SDS011;68632;47.512;19.104;2023-11-21T06:03:43;14.90;;;12.43;;